Latest Weather Observations for Proserpine

IDQ60801

Issued at 11:35 pm EST Wednesday 16 April 2014 (issued every 30 minutes, with the page automatically refreshed every 10 minutes)

About weather observations | Map of weather stations | Latest weather observations for QLD | Other Formats
Station Details ID: 033247 Name: PROSERPINE AIRPORT Lat: -20.49 Lon: 148.56 Height: 19.7 m
Data from the previous 72 hours. | See also: Recent months at Proserpine
Date/Time
EST
Temp
°C
App
Temp
°C
Dew
Point
Rel
Hum
%
Delta-T
°C
Wind Press
QNH
hPa
Press
MSL
hPa
Rain
since 9 am
mm
Dir
 
Spd
km/h
Gust
km/h
Spd
kts
Gust
kts
16/11:30pm 23.0 26.3 21.4 91 1.1 S 6 7 3 4 1015.4 - 0.0
16/11:00pm 23.0 26.3 21.4 91 1.1 SW 6 7 3 4 1015.4 - 0.0
16/10:30pm 23.2 26.6 21.6 91 1.1 S 6 7 3 4 1015.6 - 0.0
16/10:00pm 23.2 26.4 21.6 91 1.1 SSW 7 9 4 5 1015.6 - 0.0
16/09:30pm 23.2 26.6 21.6 91 1.1 SSW 6 7 3 4 1015.5 - 0.0
16/09:00pm 23.1 26.3 21.7 92 0.9 SSW 7 9 4 5 1015.4 1015.3 0.0
16/08:30pm 22.8 27.2 21.4 92 0.9 CALM 0 2 0 1 1015.1 - 0.0
16/08:00pm 23.0 27.2 20.9 88 1.4 CALM 0 0 0 0 1014.9 - 0.0
16/07:30pm 23.5 26.4 20.6 84 1.9 SE 6 7 3 4 1014.5 - 0.0
16/07:00pm 23.6 26.6 20.9 85 1.8 ESE 6 7 3 4 1014.1 - 0.0
16/06:30pm 23.9 26.2 20.6 82 2.2 E 9 11 5 6 1013.8 - 0.0
16/06:00pm 24.3 26.7 20.8 81 2.3 ESE 9 13 5 7 1013.6 1013.5 0.0
16/05:30pm 24.9 26.9 20.8 78 2.7 ESE 11 15 6 8 1013.3 - 0.0
16/05:00pm 25.5 26.9 20.3 73 3.4 ESE 13 19 7 10 1013.1 - 0.0
16/04:30pm 26.3 26.9 20.2 69 4.0 ESE 17 24 9 13 1012.7 - 0.0
16/04:00pm 26.6 27.5 20.9 71 3.8 ESE 17 22 9 12 1012.8 - 0.0
16/03:30pm 27.1 27.8 20.4 66 4.4 E 17 22 9 12 1012.8 - 0.0
16/03:00pm 27.9 28.1 20.2 63 5.1 ESE 19 26 10 14 1012.6 1012.5 0.0
16/02:30pm 28.0 28.5 20.8 65 4.8 E 19 24 10 13 1012.8 - 0.0
16/02:00pm 28.0 28.6 20.3 63 5.1 E 17 26 9 14 1013.0 - 0.0
16/01:30pm 27.9 28.3 20.7 65 4.8 E 19 24 10 13 1013.2 - 0.0
16/01:00pm 28.1 29.7 22.1 70 4.0 ESE 17 24 9 13 1013.6 - 0.0
16/12:30pm 27.3 28.0 21.6 71 3.8 ESE 20 26 11 14 1013.8 - 0.0
16/12:00pm 28.3 29.9 22.1 69 4.2 ESE 17 24 9 13 1014.2 1014.2 0.0
16/11:30am 28.1 29.0 21.6 68 4.4 E 19 24 10 13 1014.6 - 0.0
16/11:00am 27.6 28.7 21.9 71 3.8 SE 19 24 10 13 1015.1 - 0.0
16/10:30am 27.3 28.8 22.0 73 3.6 SE 17 22 9 12 1015.4 - 0.0
16/10:00am 25.6 27.4 21.1 76 3.0 ESE 13 20 7 11 1015.6 - 0.0
16/09:30am 25.3 28.0 21.4 79 2.6 E 9 13 5 7 1015.8 - 0.0
16/09:00am 25.6 27.9 21.3 77 2.8 SSE 11 19 6 10 1015.7 1015.6 0.0
16/08:30am 25.4 28.3 21.7 80 2.5 SSE 9 15 5 8 1015.5 - 0.0
16/08:00am 24.0 26.8 21.5 86 1.7 S 9 13 5 7 1015.6 - 0.0
16/07:30am 22.3 25.3 20.9 92 0.9 S 6 9 3 5 1015.4 - 0.0
16/07:00am 21.0 24.5 20.3 96 0.5 SSW 2 7 1 4 1015.3 - 0.0
16/06:30am 20.3 23.4 19.6 96 0.4 S 2 7 1 4 1014.7 - 0.0
16/06:00am 20.4 23.2 19.7 96 0.4 SSW 4 6 2 3 1014.5 1014.3 0.0
16/05:30am 20.6 22.9 19.9 96 0.4 SSW 7 9 4 5 1014.4 - 0.0
16/05:00am 20.7 22.7 20.0 96 0.4 SSW 9 11 5 6 1014.2 - 0.0
16/04:30am 20.9 22.6 20.2 96 0.4 SSW 11 13 6 7 1014.0 - 0.0
16/04:00am 21.0 23.2 20.3 96 0.5 SSW 9 11 5 6 1013.8 - 0.0
16/03:30am 21.2 23.1 20.5 96 0.5 S 11 13 6 7 1013.8 - 0.0
16/03:00am 21.3 24.0 20.6 96 0.5 SSW 7 9 4 5 1013.8 1013.6 0.0
16/02:30am 21.5 24.2 20.7 95 0.5 SSW 7 9 4 5 1013.7 - 0.0
16/02:00am 21.7 24.4 20.7 94 0.6 SSW 7 7 4 4 1013.8 - 0.0
16/01:30am 22.4 25.7 21.4 94 0.7 S 6 7 3 4 1013.9 - 0.0
16/01:00am 22.4 25.7 21.4 94 0.7 S 6 7 3 4 1014.2 - 0.0
16/12:30am 22.6 25.9 21.4 93 0.8 S 6 7 3 4 1014.3 - 0.0
16/12:08am 22.8 26.5 21.4 92 0.9 S 4 7 2 4 1014.6 - 0.0
16/12:00am 23.0 27.4 21.4 91 1.1 CALM 0 0 0 0 1014.6 1014.5 0.0
 
Date/Time
EST
Temp
°C
App
Temp
°C
Dew
Point
Rel
Hum
%
Delta-T
°C
Wind Press
QNH
hPa
Press
MSL
hPa
Rain
since 9 am
mm
Dir
 
Spd
km/h
Gust
km/h
Spd
kts
Gust
kts
15/11:30pm 23.0 25.7 21.4 91 1.1 S 9 13 5 7 1014.5 - 0.0
15/11:00pm 23.2 26.4 21.6 91 1.1 S 7 11 4 6 1014.6 - 0.0
15/10:40pm 23.3 26.2 21.7 91 1.1 S 9 13 5 7 1014.9 - 0.0
15/10:30pm 23.4 26.3 21.8 91 1.1 S 9 11 5 6 1015.0 - 0.0
15/10:00pm 23.6 26.9 21.9 90 1.1 S 7 11 4 6 1014.9 - 0.0
15/09:30pm 23.7 26.7 22.0 90 1.1 S 9 11 5 6 1014.8 - 0.0
15/09:00pm 23.7 27.3 22.0 90 1.1 S 6 7 3 4 1014.6 1014.5 0.0
15/08:30pm 23.7 26.7 22.0 90 1.1 S 9 11 5 6 1014.5 - 0.0
15/08:00pm 23.7 26.7 22.0 90 1.1 SSW 9 11 5 6 1014.2 - 0.0
15/07:30pm 23.6 26.9 21.9 90 1.1 S 7 9 4 5 1013.8 - 0.0
15/07:00pm 23.8 27.0 21.7 88 1.4 S 7 11 4 6 1013.4 - 0.0
15/06:30pm 24.1 26.9 21.6 86 1.7 SE 9 13 5 7 1013.1 - 0.0
15/06:19pm 24.2 26.3 21.7 86 1.7 SE 13 15 7 8 1013.1 - 0.0
15/06:02pm 24.4 26.5 21.7 85 1.8 SE 13 19 7 10 1013.0 - 0.0
15/06:00pm 24.5 26.7 21.8 85 1.8 SE 13 19 7 10 1013.0 1012.8 0.0
15/05:30pm 25.1 26.7 21.4 80 2.4 ESE 15 20 8 11 1012.5 - 0.0
15/05:00pm 25.8 26.7 21.5 77 2.9 ESE 19 24 10 13 1012.3 - 0.0
15/04:30pm 26.5 27.7 21.5 74 3.3 ESE 17 26 9 14 1011.9 - 0.0
15/04:00pm 26.8 27.6 21.3 72 3.7 ESE 19 28 10 15 1011.9 - 0.0
15/03:30pm 27.3 28.3 21.8 72 3.7 ESE 19 24 10 13 1011.8 - 0.0
15/03:00pm 27.2 28.5 21.7 72 3.7 ESE 17 26 9 14 1011.8 1011.7 0.0
15/02:30pm 27.1 28.9 21.8 73 3.5 E 15 22 8 12 1012.0 - 0.0
15/02:00pm 27.8 28.7 21.6 69 4.1 ENE 19 22 10 12 1011.9 - 0.0
15/01:30pm 27.7 29.0 21.7 70 4.0 ESE 17 24 9 13 1012.2 - 0.0
15/01:00pm 27.6 28.5 21.6 70 4.0 ESE 19 24 10 13 1012.6 - 0.0
15/12:30pm 27.0 27.6 21.3 71 3.8 ESE 20 28 11 15 1012.9 - 0.0
15/12:00pm 27.5 28.4 22.0 72 3.7 ESE 20 30 11 16 1013.3 1013.2 0.0
15/11:30am 27.0 27.7 21.5 72 3.7 ESE 20 24 11 13 1013.6 - 0.0
15/11:00am 26.3 27.2 20.8 71 3.6 ESE 17 22 9 12 1014.2 - 0.0
15/10:30am 26.7 28.3 22.1 76 3.1 ESE 17 24 9 13 1014.4 - 0.0
15/10:00am 26.7 27.8 21.9 75 3.2 ESE 19 28 10 15 1014.6 - 0.0
15/09:30am 25.8 28.0 21.9 79 2.6 ESE 13 19 7 10 1014.8 - 0.0
15/09:00am 25.4 28.4 21.9 81 2.3 SSE 9 13 5 7 1014.7 1014.6 0.0
15/08:30am 24.3 26.8 21.0 82 2.2 SE 9 13 5 7 1014.5 - 0.0
15/08:00am 22.9 27.2 21.2 90 1.1 CALM 0 0 0 0 1014.3 - 0.0
15/07:30am 21.5 24.0 20.3 93 0.8 S 7 9 4 5 1014.1 - 0.0
15/07:00am 20.3 23.9 19.8 97 0.3 CALM 0 0 0 0 1014.0 - 0.0
15/06:30am 19.6 23.0 19.3 98 0.2 CALM 0 0 0 0 1013.8 - 0.0
15/06:00am 19.6 21.8 19.1 97 0.3 SW 6 7 3 4 1013.5 1013.3 0.0
15/05:30am 19.9 23.4 19.6 98 0.2 CALM 0 0 0 0 1013.0 - 0.0
15/05:00am 19.9 22.3 19.6 98 0.2 SSW 6 7 3 4 1012.8 - 0.0
15/04:30am 19.9 22.7 19.6 98 0.2 SW 4 7 2 4 1012.7 - 0.0
15/04:00am 19.7 22.8 19.4 98 0.2 SW 2 7 1 4 1012.4 - 0.0
15/03:30am 19.9 23.4 19.6 98 0.2 CALM 0 0 0 0 1012.1 - 0.0
15/03:00am 20.1 23.3 19.8 98 0.2 S 2 6 1 3 1011.9 1011.8 0.0
15/02:30am 20.1 22.4 19.8 98 0.2 S 7 9 4 5 1011.7 - 0.0
15/02:00am 20.3 23.9 19.8 97 0.3 CALM 0 0 0 0 1012.0 - 0.0
15/01:30am 20.6 24.5 20.3 98 0.2 CALM 0 0 0 0 1012.0 - 0.0
15/01:00am 20.6 24.4 20.1 97 0.3 CALM 0 0 0 0 1012.3 - 0.0
15/12:30am 20.9 24.7 20.2 96 0.4 CALM 0 2 0 1 1012.4 - 0.0
15/12:00am 21.1 25.0 20.4 96 0.5 CALM 0 0 0 0 1012.6 1012.5 0.0
 
Date/Time
EST
Temp
°C
App
Temp
°C
Dew
Point
Rel
Hum
%
Delta-T
°C
Wind Press
QNH
hPa
Press
MSL
hPa
Rain
since 9 am
mm
Dir
 
Spd
km/h
Gust
km/h
Spd
kts
Gust
kts
14/11:30pm 21.4 23.7 20.7 96 0.5 SSW 9 13 5 7 1012.5 - 0.0
14/11:00pm 21.4 25.5 20.7 96 0.5 CALM 0 0 0 0 1012.5 - 0.0
14/10:30pm 21.7 25.9 20.9 95 0.5 CALM 0 0 0 0 1012.7 - 0.0
14/10:00pm 22.3 26.8 21.5 95 0.5 CALM 0 6 0 3 1012.8 - 0.0
14/09:30pm 22.4 26.8 21.4 94 0.7 CALM 0 6 0 3 1012.8 - 0.0
14/09:00pm 22.4 25.5 21.4 94 0.7 SSW 7 9 4 5 1012.7 1012.6 0.0
14/08:30pm 22.9 26.2 21.5 92 0.9 SSW 6 9 3 5 1012.4 - 0.0
14/08:00pm 23.3 26.5 21.7 91 1.1 S 7 7 4 4 1011.9 - 0.0
14/07:30pm 23.9 27.4 21.8 88 1.4 S 6 7 3 4 1011.5 - 0.0
14/07:00pm 24.3 27.5 21.6 85 1.8 ESE 7 9 4 5 1010.9 - 0.0
14/06:30pm 24.9 27.8 21.8 83 2.1 E 9 11 5 6 1010.5 - 0.0
14/06:00pm 25.3 28.4 21.4 79 2.6 E 7 11 4 6 1010.1 1010.0 0.0
14/05:30pm 25.9 27.6 20.9 74 3.3 ESE 13 17 7 9 1009.7 - 0.0
14/05:00pm 26.8 28.0 20.6 69 4.1 ESE 15 22 8 12 1009.2 - 0.0
14/04:30pm 27.5 28.5 20.3 65 4.7 ESE 15 19 8 10 1008.9 - 0.0
14/04:00pm 28.0 29.4 20.3 63 5.1 ESE 13 19 7 10 1008.6 - 0.0
14/03:30pm 28.3 30.5 21.1 65 4.8 ENE 11 17 6 9 1008.5 - 0.0
14/03:00pm 28.6 31.1 20.3 60 5.5 NNE 7 15 4 8 1008.5 1008.3 0.0
14/02:30pm 28.4 30.4 19.9 60 5.6 E 9 13 5 7 1008.4 - 0.0
14/02:00pm 28.4 31.1 20.7 63 5.1 NNE 7 13 4 7 1008.6 - 0.0
14/01:30pm 28.2 29.7 20.5 63 5.1 ENE 13 20 7 11 1008.6 - 0.0
14/01:00pm 28.0 30.0 20.8 65 4.8 NE 11 20 6 11 1008.8 - 0.0
14/12:30pm 27.9 29.8 20.5 64 4.9 NE 11 19 6 10 1009.3 - 0.0
14/12:00pm 27.4 29.3 19.7 63 5.0 NE 9 15 5 8 1009.5 1009.5 0.0
14/11:30am 27.3 28.4 18.9 60 5.4 ENE 11 15 6 8 1009.9 - 0.0
14/11:00am 27.5 29.4 19.8 63 5.0 NE 9 15 5 8 1010.3 - 0.0
14/10:30am 26.7 28.9 19.1 63 4.9 N 6 13 3 7 1010.5 - 0.0
14/10:00am 26.6 30.0 20.2 68 4.2 N 2 9 1 5 1010.5 - 0.0
14/09:30am 25.7 28.9 19.8 70 3.8 ENE 2 7 1 4 1010.5 - 0.0
14/09:00am 24.7 27.7 20.0 75 3.0 NNE 4 6 2 3 1010.4 1010.3 182.4
14/08:30am 23.8 26.2 20.1 80 2.4 N 7 9 4 5 1010.3 - 182.4
14/08:00am 22.8 25.3 20.3 86 1.6 N 7 9 4 5 1009.6 - 182.4
14/07:30am 21.8 24.6 20.4 92 0.9 NNW 6 9 3 5 1009.3 - 182.4
14/07:00am 20.6 22.9 19.9 96 0.4 N 7 11 4 6 1009.0 - 182.4
14/06:30am 20.1 23.7 19.8 98 0.2 CALM 0 0 0 0 1008.5 - 182.4
14/06:00am 20.2 23.4 19.7 97 0.3 W 2 6 1 3 1008.0 1007.8 182.4
14/05:30am 20.0 22.3 19.5 97 0.3 N 6 7 3 4 1007.6 - 182.4
14/05:00am 20.0 21.8 19.5 97 0.3 N 9 11 5 6 1007.3 - 182.4
14/04:30am 20.1 21.9 19.6 97 0.3 N 9 11 5 6 1007.3 - 182.4
14/04:00am 20.5 21.6 19.7 95 0.5 WNW 13 17 7 9 1007.0 - 182.4
14/03:30am 20.6 21.8 19.9 96 0.4 WNW 13 19 7 10 1006.6 - 182.4
14/03:00am 20.8 22.3 20.5 98 0.2 NW 13 17 7 9 1006.4 1006.3 182.4
14/02:30am 21.0 23.3 20.7 98 0.2 NNW 9 13 5 7 1006.4 - 182.4
14/02:00am 21.3 24.4 21.0 98 0.2 N 6 7 3 4 1006.4 - 182.4
14/01:30am 21.4 24.3 21.1 98 0.2 N 7 9 4 5 1006.4 - 182.4
14/01:00am 21.4 24.3 21.1 98 0.2 N 7 9 4 5 1006.9 - 182.4
14/12:30am 21.3 25.4 20.8 97 0.3 CALM 0 0 0 0 1006.8 - 182.4
14/12:00am 21.3 24.3 20.8 97 0.3 S 6 9 3 5 1006.8 1006.7 182.4

Other Formats:

Comma delimited format used in spreadsheet applications
http://www.bom.gov.au/fwo/IDQ60801/IDQ60801.94365.axf

JavaScript Object Notation format (JSON) in row-major order
http://www.bom.gov.au/fwo/IDQ60801/IDQ60801.94365.json